createdAt,value
2023-09-09T00:02:01.356Z,9.21
2023-09-09T00:04:35.090Z,9.23
2023-09-09T00:07:14.023Z,9.27
2023-09-09T00:09:44.475Z,9.27
2023-09-09T00:14:51.363Z,9.20
2023-09-09T00:17:21.646Z,9.21
2023-09-09T00:19:58.325Z,9.26
2023-09-09T00:22:28.280Z,9.25
2023-09-09T00:24:58.189Z,9.27
2023-09-09T00:27:33.841Z,9.25
2023-09-09T00:30:04.761Z,9.24
2023-09-09T00:32:39.752Z,9.24
2023-09-09T00:35:14.498Z,9.24
2023-09-09T00:37:44.192Z,9.27
2023-09-09T00:40:15.589Z,9.18
2023-09-09T00:42:52.507Z,9.24
2023-09-09T00:45:23.221Z,9.22
2023-09-09T00:47:53.204Z,9.17
2023-09-09T00:50:26.546Z,9.26
2023-09-09T00:52:56.466Z,9.18
2023-09-09T00:55:30.036Z,9.13
2023-09-09T00:57:59.456Z,9.15
2023-09-09T01:00:28.655Z,9.13
2023-09-09T01:02:58.124Z,9.14
2023-09-09T01:08:11.217Z,9.14
2023-09-09T01:10:45.825Z,9.15
2023-09-09T01:13:15.544Z,9.13
2023-09-09T01:15:45.432Z,9.12
2023-09-09T01:18:22.790Z,9.06
2023-09-09T01:21:05.850Z,9.09
2023-09-09T01:23:43.179Z,9.08
2023-09-09T01:26:12.672Z,9.05
2023-09-09T01:28:44.632Z,8.96
2023-09-09T01:31:15.048Z,9.04
2023-09-09T01:33:51.441Z,9.04
2023-09-09T01:36:20.856Z,8.97
2023-09-09T01:38:52.472Z,8.92
2023-09-09T01:41:26.059Z,8.81
2023-09-09T01:44:00.655Z,8.68
2023-09-09T01:46:30.289Z,8.58
2023-09-09T01:49:09.013Z,8.54
2023-09-09T01:51:39.323Z,8.43
2023-09-09T01:54:12.052Z,8.43
2023-09-09T01:56:47.323Z,8.38
2023-09-09T01:59:17.703Z,8.39
2023-09-09T02:01:47.309Z,8.43
2023-09-09T02:04:19.041Z,8.49
2023-09-09T02:09:26.953Z,8.62
2023-09-09T02:12:08.092Z,8.63
2023-09-09T02:14:41.225Z,8.66
2023-09-09T02:17:18.292Z,8.64
2023-09-09T02:19:48.637Z,8.69
2023-09-09T02:22:18.388Z,8.80
2023-09-09T02:25:08.508Z,8.85
2023-09-09T02:27:39.040Z,8.84
2023-09-09T02:30:10.371Z,8.84
2023-09-09T02:32:44.842Z,8.91
2023-09-09T02:35:14.582Z,8.97
2023-09-09T02:37:46.845Z,8.98
2023-09-09T02:40:17.951Z,9.09
2023-09-09T02:42:48.588Z,9.01
2023-09-09T02:45:18.252Z,9.01
2023-09-09T02:47:47.491Z,8.93
2023-09-09T02:50:21.383Z,9.05
2023-09-09T02:52:51.846Z,9.03
2023-09-09T02:58:07.590Z,9.08
2023-09-09T03:00:37.097Z,9.11
2023-09-09T03:03:07.355Z,9.09
2023-09-09T03:05:39.967Z,9.09
2023-09-09T03:08:17.549Z,9.09
2023-09-09T03:10:48.789Z,9.24
2023-09-09T03:16:05.063Z,9.21
2023-09-09T03:18:39.625Z,9.16
2023-09-09T03:21:10.252Z,9.20
2023-09-09T03:23:50.478Z,9.26
2023-09-09T03:26:23.530Z,9.30
2023-09-09T03:28:57.901Z,9.27
2023-09-09T03:31:29.484Z,9.34
2023-09-09T03:36:40.720Z,9.45
2023-09-09T03:39:10.257Z,9.48
2023-09-09T03:41:52.266Z,9.40
2023-09-09T03:44:23.808Z,9.56
2023-09-09T03:47:00.327Z,9.68
2023-09-09T03:49:34.789Z,9.70
2023-09-09T03:52:04.851Z,9.76
2023-09-09T03:54:36.649Z,9.87
2023-09-09T03:59:52.248Z,10.07
2023-09-09T04:02:23.715Z,10.04
2023-09-09T04:04:55.165Z,10.04
2023-09-09T04:07:25.971Z,10.08
2023-09-09T04:09:59.245Z,10.00
2023-09-09T04:12:30.545Z,9.80
2023-09-09T04:15:01.164Z,9.64
2023-09-09T04:17:35.185Z,9.55
2023-09-09T04:20:13.142Z,9.47
2023-09-09T04:22:45.739Z,9.52
2023-09-09T04:28:00.241Z,9.85
2023-09-09T04:30:35.476Z,9.99
2023-09-09T04:33:05.402Z,10.10
2023-09-09T04:35:34.994Z,10.21
2023-09-09T04:38:12.420Z,10.31
2023-09-09T04:40:43.251Z,10.37
2023-09-09T04:43:16.344Z,10.36
2023-09-09T04:45:46.024Z,10.38
2023-09-09T04:48:16.217Z,10.49
2023-09-09T04:50:45.773Z,10.50
2023-09-09T04:53:21.159Z,10.49
2023-09-09T04:55:54.036Z,10.51
2023-09-09T04:58:26.965Z,10.53
2023-09-09T05:00:56.371Z,10.47
2023-09-09T05:03:27.138Z,10.41
2023-09-09T05:06:04.084Z,10.41
2023-09-09T05:08:36.166Z,10.38
2023-09-09T05:11:08.745Z,10.38
2023-09-09T05:13:40.279Z,10.42
2023-09-09T05:16:10.374Z,10.44
2023-09-09T05:18:41.731Z,10.51
2023-09-09T05:21:11.178Z,10.53
2023-09-09T05:23:46.295Z,10.58
2023-09-09T05:26:16.163Z,10.68
2023-09-09T05:28:50.066Z,10.75
2023-09-09T05:31:23.399Z,10.74
2023-09-09T05:33:53.882Z,10.72
2023-09-09T05:36:24.427Z,10.92
2023-09-09T05:39:02.917Z,10.91
2023-09-09T05:41:42.640Z,10.95
2023-09-09T05:44:15.352Z,11.03
2023-09-09T05:46:46.192Z,11.10
2023-09-09T05:49:36.184Z,11.18
2023-09-09T05:52:15.684Z,11.18
2023-09-09T05:54:45.701Z,11.20
2023-09-09T05:57:15.510Z,11.30
2023-09-09T05:59:52.151Z,11.39
2023-09-09T06:02:22.782Z,11.46
2023-09-09T06:04:57.558Z,11.48
2023-09-09T06:10:08.754Z,11.88
2023-09-09T06:12:38.223Z,11.72
2023-09-09T06:15:14.027Z,11.71
2023-09-09T06:17:51.065Z,11.72
2023-09-09T06:20:21.678Z,11.83
2023-09-09T06:22:56.956Z,12.21
2023-09-09T06:25:29.026Z,12.61
2023-09-09T06:28:04.016Z,12.75
2023-09-09T06:30:35.836Z,12.73
2023-09-09T06:35:51.039Z,12.99
2023-09-09T06:38:23.834Z,12.96
2023-09-09T06:40:53.467Z,12.86
2023-09-09T06:43:23.749Z,12.93
2023-09-09T06:45:55.653Z,12.99
2023-09-09T06:48:25.718Z,13.16
2023-09-09T06:50:57.276Z,13.38
2023-09-09T06:56:08.107Z,13.39
2023-09-09T06:58:44.467Z,13.29
2023-09-09T07:01:16.597Z,13.26
2023-09-09T07:03:46.301Z,13.28
2023-09-09T07:06:22.601Z,13.86
2023-09-09T07:08:52.379Z,13.83
2023-09-09T07:11:22.091Z,13.87
2023-09-09T07:13:52.654Z,13.94
2023-09-09T07:16:24.950Z,13.97
2023-09-09T07:19:00.774Z,13.84
2023-09-09T07:21:30.162Z,13.96
2023-09-09T07:23:59.782Z,14.11
2023-09-09T07:26:32.694Z,14.10
2023-09-09T07:29:08.052Z,13.96
2023-09-09T07:31:40.675Z,14.04
2023-09-09T07:34:16.404Z,14.11
2023-09-09T07:36:50.037Z,14.03
2023-09-09T07:39:20.594Z,13.76
2023-09-09T07:41:56.421Z,13.43
2023-09-09T07:44:27.226Z,13.53
2023-09-09T07:46:59.190Z,13.76
2023-09-09T07:49:30.629Z,13.88
2023-09-09T07:52:00.691Z,13.64
2023-09-09T07:54:30.098Z,13.59
2023-09-09T07:57:01.238Z,13.53
2023-09-09T07:59:33.643Z,13.60
2023-09-09T08:02:08.293Z,13.81
2023-09-09T08:04:43.728Z,13.91
2023-09-09T08:07:18.653Z,13.97
2023-09-09T08:09:49.141Z,14.12
2023-09-09T08:12:28.793Z,13.73
2023-09-09T08:15:08.057Z,13.74
2023-09-09T08:17:46.192Z,13.82
2023-09-09T08:20:16.241Z,13.86
2023-09-09T08:22:47.358Z,13.89
2023-09-09T08:25:24.725Z,13.88
2023-09-09T08:27:54.364Z,13.63
2023-09-09T08:30:26.431Z,13.57
2023-09-09T08:33:03.095Z,13.58
2023-09-09T08:35:37.052Z,13.80
2023-09-09T08:38:07.681Z,13.85
2023-09-09T08:40:43.894Z,13.90
2023-09-09T08:43:22.188Z,13.96
2023-09-09T08:46:02.335Z,13.94
2023-09-09T08:48:40.114Z,14.16
2023-09-09T08:51:12.027Z,14.46
2023-09-09T08:53:49.468Z,14.63
2023-09-09T08:56:20.950Z,14.56
2023-09-09T08:59:00.636Z,14.54
2023-09-09T09:01:42.886Z,14.42
2023-09-09T09:04:23.630Z,14.25
2023-09-09T09:06:54.682Z,13.86
2023-09-09T09:09:29.447Z,13.68
2023-09-09T09:12:01.722Z,13.54
2023-09-09T09:14:37.070Z,13.56
2023-09-09T09:17:08.915Z,13.78
2023-09-09T09:19:46.671Z,13.79
2023-09-09T09:22:17.276Z,13.63
2023-09-09T09:24:47.914Z,13.61
2023-09-09T09:27:22.589Z,13.55
2023-09-09T09:29:55.111Z,13.37
2023-09-09T09:32:26.309Z,13.26
2023-09-09T09:34:57.817Z,13.57
2023-09-09T09:37:29.451Z,13.91
2023-09-09T09:39:58.848Z,13.86
2023-09-09T09:42:29.259Z,13.52
2023-09-09T09:45:11.795Z,14.07
2023-09-09T09:47:47.463Z,14.42
2023-09-09T09:50:34.524Z,14.55
2023-09-09T09:53:06.801Z,14.45
2023-09-09T09:55:51.044Z,14.42
2023-09-09T09:58:24.930Z,14.46
2023-09-09T10:00:57.732Z,14.47
2023-09-09T10:03:31.918Z,14.48
2023-09-09T10:06:03.855Z,14.38
2023-09-09T10:08:40.775Z,14.30
2023-09-09T10:11:20.828Z,14.32
2023-09-09T10:13:57.810Z,13.79
2023-09-09T10:16:34.765Z,14.10
2023-09-09T10:19:06.950Z,14.20
2023-09-09T10:21:42.661Z,14.27
2023-09-09T10:24:14.090Z,14.40
2023-09-09T10:29:27.930Z,14.49
2023-09-09T10:32:03.917Z,14.17
2023-09-09T10:37:21.877Z,14.25
2023-09-09T10:39:54.322Z,14.31
2023-09-09T10:42:25.421Z,14.02
2023-09-09T10:44:57.228Z,13.85
2023-09-09T10:47:27.657Z,13.86
2023-09-09T10:50:13.032Z,13.55
2023-09-09T10:52:49.396Z,14.04
2023-09-09T10:55:20.055Z,14.29
2023-09-09T10:57:59.541Z,14.34
2023-09-09T11:03:28.552Z,14.20
2023-09-09T11:06:22.371Z,14.23
2023-09-09T11:08:57.456Z,14.19
2023-09-09T11:11:29.122Z,14.12
2023-09-09T11:14:06.806Z,14.30
2023-09-09T11:16:38.142Z,14.29
2023-09-09T11:19:13.105Z,14.17
2023-09-09T11:21:49.172Z,13.97
2023-09-09T11:24:21.915Z,13.82
2023-09-09T11:29:36.972Z,14.10
2023-09-09T11:32:12.365Z,14.14
2023-09-09T11:34:45.548Z,14.03
2023-09-09T11:37:15.607Z,14.12
2023-09-09T11:39:47.698Z,14.25
2023-09-09T11:42:17.342Z,14.32
2023-09-09T11:44:47.617Z,14.48
2023-09-09T11:47:18.392Z,14.71
2023-09-09T11:52:25.575Z,15.12
2023-09-09T11:54:58.353Z,15.23
2023-09-09T12:00:06.997Z,14.79
2023-09-09T12:02:41.503Z,14.94
2023-09-09T12:05:15.865Z,14.88
2023-09-09T12:07:46.271Z,15.00
2023-09-09T12:10:23.614Z,15.11
2023-09-09T12:12:54.003Z,14.95
2023-09-09T12:15:25.050Z,14.95
2023-09-09T12:18:02.951Z,15.08
2023-09-09T12:20:34.818Z,14.92
2023-09-09T12:23:05.562Z,14.89
2023-09-09T12:25:39.711Z,14.99
2023-09-09T12:28:29.199Z,15.07
2023-09-09T12:31:02.638Z,15.14
2023-09-09T12:33:40.045Z,14.97
2023-09-09T12:36:18.789Z,14.88
2023-09-09T12:41:34.113Z,14.74
2023-09-09T12:49:23.134Z,14.99
2023-09-09T12:51:53.792Z,15.06
2023-09-09T12:54:23.583Z,15.18
2023-09-09T12:56:53.834Z,15.12
2023-09-09T12:59:24.888Z,15.15
2023-09-09T13:01:56.898Z,15.31
2023-09-09T13:04:36.295Z,15.48
2023-09-09T13:07:07.401Z,15.49
2023-09-09T13:09:42.067Z,15.52
2023-09-09T13:12:12.953Z,15.44
2023-09-09T13:14:48.258Z,15.39
2023-09-09T13:17:20.197Z,15.30
2023-09-09T13:19:54.014Z,15.25
2023-09-09T13:22:28.182Z,15.31
2023-09-09T13:25:02.887Z,15.36
2023-09-09T13:27:41.886Z,15.36
2023-09-09T13:30:14.796Z,15.23
2023-09-09T13:32:51.160Z,15.19
2023-09-09T13:35:32.301Z,15.27
2023-09-09T13:38:02.310Z,15.17
2023-09-09T13:40:31.982Z,15.23
2023-09-09T13:43:02.477Z,15.21
2023-09-09T13:45:31.964Z,15.21
2023-09-09T13:48:07.870Z,15.25
2023-09-09T13:50:40.557Z,15.26
2023-09-09T13:53:17.797Z,15.26
2023-09-09T13:55:48.944Z,15.17
2023-09-09T13:58:19.394Z,15.14
2023-09-09T14:00:59.036Z,15.08
2023-09-09T14:03:37.938Z,15.06
2023-09-09T14:06:11.581Z,15.05
2023-09-09T14:08:42.720Z,15.10
2023-09-09T14:11:21.073Z,15.16
2023-09-09T14:13:51.207Z,15.09
2023-09-09T14:16:22.728Z,15.09
2023-09-09T14:18:53.715Z,15.19
2023-09-09T14:21:25.836Z,15.15
2023-09-09T14:23:56.924Z,15.14
2023-09-09T14:26:31.862Z,15.11
2023-09-09T14:29:02.716Z,15.10
2023-09-09T14:31:32.621Z,15.04
2023-09-09T14:34:02.919Z,15.01
2023-09-09T14:36:39.838Z,14.95
2023-09-09T14:39:10.018Z,15.08
2023-09-09T14:41:40.590Z,15.15
2023-09-09T14:44:15.198Z,15.12
2023-09-09T14:46:44.652Z,15.13
2023-09-09T14:49:15.042Z,15.09
2023-09-09T14:51:46.752Z,15.10
2023-09-09T14:54:16.636Z,15.09
2023-09-09T14:56:47.428Z,15.06
2023-09-09T14:59:18.595Z,15.02
2023-09-09T15:01:48.269Z,14.91
2023-09-09T15:04:18.422Z,14.96
2023-09-09T15:06:55.962Z,15.01
2023-09-09T15:09:25.876Z,14.98
2023-09-09T15:11:59.314Z,14.98
2023-09-09T15:14:30.021Z,15.11
2023-09-09T15:19:37.769Z,14.98
2023-09-09T15:22:10.207Z,14.96
2023-09-09T15:24:41.152Z,14.82
2023-09-09T15:27:17.258Z,15.00
2023-09-09T15:29:56.908Z,14.92
2023-09-09T15:32:27.526Z,14.95
2023-09-09T15:34:58.421Z,14.98
2023-09-09T15:37:37.867Z,14.95
2023-09-09T15:42:47.617Z,14.92
2023-09-09T15:45:17.488Z,14.91
2023-09-09T15:47:52.361Z,14.84
2023-09-09T15:50:23.320Z,14.87
2023-09-09T15:55:33.438Z,14.81
2023-09-09T15:58:04.664Z,14.82
2023-09-09T16:00:36.554Z,14.78
2023-09-09T16:03:08.129Z,14.79
2023-09-09T16:05:39.335Z,14.80
2023-09-09T16:08:11.676Z,14.87
2023-09-09T16:10:48.965Z,14.80
2023-09-09T16:13:18.893Z,14.85
2023-09-09T16:16:02.692Z,14.84
2023-09-09T16:18:40.890Z,14.85
2023-09-09T16:21:11.820Z,14.70
2023-09-09T16:23:44.289Z,14.88
2023-09-09T16:26:19.079Z,14.80
2023-09-09T16:28:50.569Z,14.81
2023-09-09T16:31:22.506Z,14.85
2023-09-09T16:33:52.517Z,14.82
2023-09-09T16:36:25.701Z,14.83
2023-09-09T16:38:57.973Z,14.90
2023-09-09T16:41:33.098Z,14.87
2023-09-09T16:44:07.210Z,14.94
2023-09-09T16:46:43.410Z,14.92
2023-09-09T16:49:17.504Z,14.91
2023-09-09T16:51:52.308Z,14.89
2023-09-09T16:54:24.445Z,14.88
2023-09-09T16:56:54.510Z,14.90
2023-09-09T16:59:28.459Z,14.96
2023-09-09T17:02:00.363Z,14.94
2023-09-09T17:04:31.920Z,14.91
2023-09-09T17:07:08.116Z,14.94
2023-09-09T17:09:43.936Z,14.91
2023-09-09T17:12:14.622Z,14.88
2023-09-09T17:14:44.063Z,14.89
2023-09-09T17:17:26.544Z,14.94
2023-09-09T17:19:56.255Z,14.96
2023-09-09T17:22:26.195Z,14.92
2023-09-09T17:27:40.455Z,14.93
2023-09-09T17:30:14.143Z,14.89
2023-09-09T17:32:46.895Z,14.93
2023-09-09T17:35:22.113Z,14.92
2023-09-09T17:37:57.973Z,14.91
2023-09-09T17:40:32.344Z,14.97
2023-09-09T17:43:03.261Z,14.96
2023-09-09T17:45:33.813Z,15.01
2023-09-09T17:48:03.658Z,14.99
2023-09-09T17:50:38.175Z,15.02
2023-09-09T17:53:07.950Z,15.01
2023-09-09T17:55:46.891Z,15.03
2023-09-09T17:58:16.679Z,14.93
2023-09-09T18:00:47.879Z,14.96
2023-09-09T18:03:20.391Z,14.92
2023-09-09T18:05:50.010Z,14.85
2023-09-09T18:08:25.544Z,14.79
2023-09-09T18:10:58.550Z,14.67
2023-09-09T18:13:29.179Z,14.58
2023-09-09T18:15:59.116Z,14.54
2023-09-09T18:18:29.876Z,14.50
2023-09-09T18:20:59.555Z,14.43
2023-09-09T18:23:30.368Z,14.37
2023-09-09T18:26:04.015Z,14.34
2023-09-09T18:28:34.647Z,14.31
2023-09-09T18:31:06.318Z,14.27
2023-09-09T18:33:36.197Z,14.32
2023-09-09T18:36:07.753Z,14.20
2023-09-09T18:38:39.777Z,14.10
2023-09-09T18:41:18.191Z,14.12
2023-09-09T18:46:25.212Z,14.04
2023-09-09T18:48:55.989Z,14.02
2023-09-09T18:51:26.214Z,14.01
2023-09-09T18:53:55.618Z,13.95
2023-09-09T18:56:28.063Z,13.93
2023-09-09T18:59:04.749Z,13.95
2023-09-09T19:01:36.197Z,13.98
2023-09-09T19:04:13.767Z,14.04
2023-09-09T19:06:43.402Z,14.02
2023-09-09T19:09:16.108Z,14.02
2023-09-09T19:11:54.554Z,13.97
2023-09-09T19:14:24.456Z,13.95
2023-09-09T19:16:54.087Z,13.89
2023-09-09T19:19:23.728Z,13.75
2023-09-09T19:21:53.466Z,13.95
2023-09-09T19:24:22.894Z,13.90
2023-09-09T19:26:54.625Z,13.88
2023-09-09T19:29:24.131Z,13.89
2023-09-09T19:32:01.226Z,13.86
2023-09-09T19:34:31.014Z,13.84
2023-09-09T19:37:00.691Z,13.89
2023-09-09T19:39:34.647Z,13.81
2023-09-09T19:42:08.475Z,13.83
2023-09-09T19:44:38.289Z,13.86
2023-09-09T19:47:08.808Z,13.82
2023-09-09T19:49:38.482Z,13.82
2023-09-09T19:52:08.793Z,13.83
2023-09-09T19:54:38.948Z,13.85
2023-09-09T19:57:20.054Z,13.80
2023-09-09T19:59:51.496Z,13.86
2023-09-09T20:02:21.468Z,13.83
2023-09-09T20:04:59.376Z,13.89
2023-09-09T20:07:29.881Z,13.88
2023-09-09T20:10:13.746Z,13.85
2023-09-09T20:12:47.001Z,13.75
2023-09-09T20:15:17.210Z,13.87
2023-09-09T20:17:47.478Z,13.86
2023-09-09T20:20:18.649Z,13.82
2023-09-09T20:22:50.389Z,13.82
2023-09-09T20:25:21.999Z,13.84
2023-09-09T20:27:54.562Z,13.97
2023-09-09T20:30:29.357Z,13.84
2023-09-09T20:33:00.611Z,13.80
2023-09-09T20:35:35.209Z,13.80
2023-09-09T20:38:10.188Z,13.80
2023-09-09T20:40:40.718Z,13.77
2023-09-09T20:43:12.330Z,13.60
2023-09-09T20:45:47.765Z,13.50
2023-09-09T20:48:18.091Z,13.29
2023-09-09T20:50:50.184Z,13.06
2023-09-09T20:53:19.703Z,13.03
2023-09-09T20:55:51.919Z,12.93
2023-09-09T20:58:24.981Z,12.75
2023-09-09T21:00:59.913Z,12.81
2023-09-09T21:03:33.068Z,12.70
2023-09-09T21:06:03.245Z,12.61
2023-09-09T21:08:37.978Z,12.62
2023-09-09T21:13:52.352Z,12.59
2023-09-09T21:16:31.908Z,12.60
2023-09-09T21:19:03.519Z,12.54
2023-09-09T21:21:39.901Z,12.55
2023-09-09T21:24:13.938Z,12.56
2023-09-09T21:26:53.529Z,12.48
2023-09-09T21:29:28.327Z,12.46
2023-09-09T21:32:10.008Z,12.52
2023-09-09T21:34:40.357Z,12.50
2023-09-09T21:37:15.637Z,12.36
2023-09-09T21:39:45.242Z,12.45
2023-09-09T21:42:16.996Z,12.42
2023-09-09T21:44:55.175Z,12.38
2023-09-09T21:47:25.075Z,12.50
2023-09-09T21:49:55.064Z,12.46
2023-09-09T21:52:29.513Z,12.45
2023-09-09T21:55:00.402Z,12.48
2023-09-09T21:57:35.220Z,12.47
2023-09-09T22:00:19.865Z,12.45
2023-09-09T22:02:55.953Z,12.43
2023-09-09T22:05:25.368Z,12.37
2023-09-09T22:07:55.011Z,12.34
2023-09-09T22:10:26.415Z,12.33
2023-09-09T22:12:56.835Z,12.33
2023-09-09T22:15:28.498Z,12.30
2023-09-09T22:18:05.160Z,12.30
2023-09-09T22:20:36.163Z,12.33
2023-09-09T22:23:06.960Z,12.22
2023-09-09T22:25:46.115Z,12.06
2023-09-09T22:28:15.295Z,12.03
2023-09-09T22:30:46.974Z,11.98
2023-09-09T22:33:16.294Z,11.94
2023-09-09T22:38:24.970Z,11.81
2023-09-09T22:40:56.602Z,11.87
2023-09-09T22:46:14.866Z,11.71
2023-09-09T22:48:46.554Z,11.67
2023-09-09T22:53:57.629Z,11.43
2023-09-09T22:56:32.304Z,11.35
2023-09-09T22:59:07.893Z,11.31
2023-09-09T23:01:40.041Z,11.37
2023-09-09T23:04:09.345Z,11.49
2023-09-09T23:06:38.937Z,11.40
2023-09-09T23:09:15.799Z,11.26
2023-09-09T23:11:45.161Z,11.30
2023-09-09T23:14:14.860Z,11.29
2023-09-09T23:19:24.245Z,11.26
2023-09-09T23:22:03.372Z,11.24
2023-09-09T23:24:39.127Z,11.25
2023-09-09T23:27:14.243Z,11.26
2023-09-09T23:29:48.516Z,11.24
2023-09-09T23:32:20.111Z,11.23
2023-09-09T23:34:51.946Z,11.24
2023-09-09T23:37:20.894Z,11.24
2023-09-09T23:39:50.329Z,11.22
2023-09-09T23:42:20.914Z,11.22
2023-09-09T23:44:58.637Z,11.29
2023-09-09T23:47:31.231Z,11.26
2023-09-09T23:50:01.595Z,11.23
2023-09-09T23:52:33.683Z,11.19
2023-09-09T23:55:04.104Z,11.19
2023-09-09T23:57:33.842Z,11.16
